createdAt,value
2022-11-16T00:01:49.995Z,9.45
2022-11-16T00:04:56.105Z,9.44
2022-11-16T00:08:01.847Z,9.41
2022-11-16T00:11:14.557Z,9.45
2022-11-16T00:14:22.499Z,9.51
2022-11-16T00:17:28.242Z,9.63
2022-11-16T00:20:34.023Z,9.61
2022-11-16T00:23:40.218Z,9.59
2022-11-16T00:26:46.955Z,9.52
2022-11-16T00:29:52.388Z,9.62
2022-11-16T00:33:01.803Z,9.59
2022-11-16T00:36:10.782Z,9.63
2022-11-16T00:39:17.591Z,9.72
2022-11-16T00:42:24.500Z,9.75
2022-11-16T00:45:30.149Z,9.66
2022-11-16T00:48:36.304Z,9.69
2022-11-16T00:51:42.713Z,9.56
2022-11-16T00:54:49.068Z,9.43
2022-11-16T00:57:54.480Z,9.57
2022-11-16T01:01:07.271Z,9.74
2022-11-16T01:04:12.985Z,9.59
2022-11-16T01:07:18.727Z,9.68
2022-11-16T01:10:28.067Z,9.54
2022-11-16T01:13:33.653Z,9.66
2022-11-16T01:16:39.572Z,9.46
2022-11-16T01:19:45.291Z,9.34
2022-11-16T01:22:51.237Z,9.39
2022-11-16T01:25:58.399Z,9.36
2022-11-16T01:29:05.008Z,9.59
2022-11-16T01:32:15.677Z,9.59
2022-11-16T01:35:22.706Z,9.32
2022-11-16T01:38:30.018Z,9.46
2022-11-16T01:41:37.623Z,9.47
2022-11-16T01:44:44.560Z,9.56
2022-11-16T01:47:55.527Z,9.54
2022-11-16T01:51:06.283Z,9.62
2022-11-16T01:54:14.236Z,9.67
2022-11-16T01:57:38.558Z,9.71
2022-11-16T02:00:49.325Z,9.69
2022-11-16T02:04:17.707Z,9.73
2022-11-16T02:07:59.419Z,9.65
2022-11-16T02:11:29.311Z,9.70
2022-11-16T02:14:57.206Z,9.66
2022-11-16T02:18:12.353Z,9.68
2022-11-16T02:21:32.380Z,9.61
2022-11-16T02:24:49.785Z,9.48
2022-11-16T02:28:20.743Z,9.51
2022-11-16T02:31:34.069Z,9.48
2022-11-16T02:35:15.425Z,9.54
2022-11-16T02:38:26.799Z,9.59
2022-11-16T02:41:35.873Z,9.67
2022-11-16T02:44:46.965Z,9.69
2022-11-16T02:47:59.389Z,9.65
2022-11-16T02:51:07.422Z,9.62
2022-11-16T02:54:18.701Z,9.68
2022-11-16T02:57:39.865Z,9.76
2022-11-16T03:01:07.470Z,9.62
2022-11-16T03:04:27.124Z,9.69
2022-11-16T03:07:40.294Z,9.74
2022-11-16T03:11:09.807Z,9.57
2022-11-16T03:14:20.783Z,9.69
2022-11-16T03:17:42.844Z,9.69
2022-11-16T03:20:54.468Z,9.67
2022-11-16T03:24:00.800Z,9.75
2022-11-16T03:27:15.470Z,9.76
2022-11-16T03:30:27.631Z,9.74
2022-11-16T03:33:41.616Z,9.56
2022-11-16T03:36:50.937Z,9.71
2022-11-16T03:39:59.280Z,9.60
2022-11-16T03:43:07.207Z,9.61
2022-11-16T03:46:14.484Z,9.71
2022-11-16T03:49:25.379Z,9.71
2022-11-16T03:52:33.647Z,9.51
2022-11-16T03:55:39.525Z,9.66
2022-11-16T03:58:45.572Z,9.59
2022-11-16T04:01:51.588Z,9.67
2022-11-16T04:05:17.191Z,9.76
2022-11-16T04:08:41.243Z,9.78
2022-11-16T04:12:06.342Z,9.71
2022-11-16T04:15:30.333Z,9.73
2022-11-16T04:18:55.794Z,9.72
2022-11-16T04:22:25.537Z,9.76
2022-11-16T04:25:36.232Z,9.62
2022-11-16T04:28:42.606Z,9.56
2022-11-16T04:32:07.977Z,9.68
2022-11-16T04:35:32.013Z,9.42
2022-11-16T04:38:37.810Z,9.56
2022-11-16T04:42:02.751Z,9.56
2022-11-16T04:45:28.714Z,9.68
2022-11-16T04:48:35.178Z,9.74
2022-11-16T04:51:42.161Z,9.77
2022-11-16T04:54:48.064Z,9.65
2022-11-16T04:57:54.829Z,9.66
2022-11-16T05:01:01.703Z,9.61
2022-11-16T05:04:07.674Z,9.70
2022-11-16T05:07:15.840Z,9.66
2022-11-16T05:10:24.040Z,9.74
2022-11-16T05:13:31.530Z,9.77
2022-11-16T05:16:37.724Z,9.79
2022-11-16T05:20:02.203Z,9.75
2022-11-16T05:23:33.404Z,9.75
2022-11-16T05:26:45.235Z,9.77
2022-11-16T05:29:51.844Z,9.71
2022-11-16T05:33:01.226Z,9.72
2022-11-16T05:36:11.340Z,9.71
2022-11-16T05:39:18.835Z,9.67
2022-11-16T05:42:25.326Z,9.71
2022-11-16T05:45:31.871Z,9.64
2022-11-16T05:48:39.569Z,9.64
2022-11-16T05:51:47.895Z,9.58
2022-11-16T05:54:56.170Z,9.61
2022-11-16T05:58:02.474Z,9.56
2022-11-16T06:01:09.158Z,9.58
2022-11-16T06:04:16.270Z,9.49
2022-11-16T06:07:22.150Z,9.40
2022-11-16T06:10:28.485Z,9.35
2022-11-16T06:13:35.100Z,9.36
2022-11-16T06:16:41.176Z,9.39
2022-11-16T06:19:49.330Z,9.36
2022-11-16T06:22:55.377Z,9.45
2022-11-16T06:26:02.092Z,9.38
2022-11-16T06:29:09.351Z,9.38
2022-11-16T06:32:15.181Z,9.43
2022-11-16T06:35:21.384Z,9.43
2022-11-16T06:38:27.975Z,9.35
2022-11-16T06:41:40.193Z,9.34
2022-11-16T06:44:49.536Z,9.35
2022-11-16T06:48:00.302Z,9.36
2022-11-16T06:51:06.778Z,9.48
2022-11-16T06:54:13.251Z,9.38
2022-11-16T06:57:20.176Z,9.45
2022-11-16T07:00:26.853Z,9.46
2022-11-16T07:03:33.114Z,9.50
2022-11-16T07:06:42.250Z,9.44
2022-11-16T07:09:48.757Z,9.52
2022-11-16T07:12:54.723Z,9.36
2022-11-16T07:16:05.191Z,9.60
2022-11-16T07:19:11.259Z,9.50
2022-11-16T07:22:18.407Z,9.64
2022-11-16T07:25:24.569Z,9.77
2022-11-16T07:28:33.481Z,9.69
2022-11-16T07:31:40.403Z,9.90
2022-11-16T07:35:05.707Z,9.93
2022-11-16T07:38:17.735Z,9.90
2022-11-16T07:41:24.573Z,9.94
2022-11-16T07:44:50.537Z,9.97
2022-11-16T07:47:56.055Z,10.00
2022-11-16T07:51:28.450Z,9.96
2022-11-16T07:54:50.246Z,10.14
2022-11-16T07:57:57.421Z,10.14
2022-11-16T08:01:05.621Z,10.18
2022-11-16T08:04:13.021Z,10.12
2022-11-16T08:07:19.472Z,10.11
2022-11-16T08:10:31.612Z,10.16
2022-11-16T08:13:40.200Z,10.21
2022-11-16T08:16:45.975Z,10.13
2022-11-16T08:19:54.106Z,10.17
2022-11-16T08:23:01.640Z,10.16
2022-11-16T08:26:17.546Z,10.13
2022-11-16T08:29:28.214Z,10.18
2022-11-16T08:32:39.380Z,10.19
2022-11-16T08:35:46.062Z,10.29
2022-11-16T08:38:52.865Z,10.36
2022-11-16T08:42:01.320Z,10.42
2022-11-16T08:45:07.507Z,10.47
2022-11-16T08:48:13.705Z,10.42
2022-11-16T08:51:20.799Z,10.45
2022-11-16T08:54:33.476Z,10.49
2022-11-16T08:57:39.882Z,10.44
2022-11-16T09:00:48.832Z,10.52
2022-11-16T09:03:55.307Z,10.59
2022-11-16T09:07:00.934Z,10.67
2022-11-16T09:10:07.930Z,10.65
2022-11-16T09:13:13.770Z,10.80
2022-11-16T09:16:21.265Z,10.67
2022-11-16T09:19:27.059Z,10.50
2022-11-16T09:22:32.681Z,10.42
2022-11-16T09:25:38.126Z,10.50
2022-11-16T09:28:43.506Z,10.58
2022-11-16T09:31:49.035Z,10.47
2022-11-16T09:34:54.320Z,10.39
2022-11-16T09:37:59.925Z,10.44
2022-11-16T09:41:17.582Z,10.41
2022-11-16T09:44:31.726Z,10.54
2022-11-16T09:47:44.677Z,10.91
2022-11-16T09:50:58.147Z,10.75
2022-11-16T09:54:13.916Z,10.91
2022-11-16T09:57:27.302Z,11.02
2022-11-16T10:00:35.113Z,10.93
2022-11-16T10:03:44.744Z,10.83
2022-11-16T10:07:16.921Z,10.76
2022-11-16T10:10:39.691Z,10.95
2022-11-16T10:13:50.872Z,10.87
2022-11-16T10:17:14.634Z,10.94
2022-11-16T10:20:58.217Z,11.04
2022-11-16T10:24:22.410Z,11.09
2022-11-16T10:27:45.079Z,11.00
2022-11-16T10:31:16.427Z,10.92
2022-11-16T10:34:44.356Z,11.02
2022-11-16T10:37:52.086Z,10.98
2022-11-16T10:41:04.471Z,10.94
2022-11-16T10:44:26.252Z,11.00
2022-11-16T10:47:43.195Z,11.17
2022-11-16T10:50:51.842Z,11.21
2022-11-16T10:53:57.689Z,11.12
2022-11-16T10:57:06.132Z,11.14
2022-11-16T11:00:13.409Z,11.25
2022-11-16T11:03:32.129Z,11.35
2022-11-16T11:06:40.672Z,11.31
2022-11-16T11:09:53.812Z,11.30
2022-11-16T11:13:10.398Z,11.69
2022-11-16T11:16:18.392Z,11.73
2022-11-16T11:19:29.688Z,11.64
2022-11-16T11:22:49.268Z,11.60
2022-11-16T11:26:01.116Z,11.70
2022-11-16T11:29:31.014Z,11.88
2022-11-16T11:32:40.614Z,12.01
2022-11-16T11:35:45.771Z,12.06
2022-11-16T11:39:03.806Z,11.89
2022-11-16T11:42:15.568Z,11.92
2022-11-16T11:45:35.798Z,11.91
2022-11-16T11:48:50.099Z,11.92
2022-11-16T11:51:59.502Z,12.18
2022-11-16T11:55:07.854Z,11.96
2022-11-16T11:58:18.963Z,11.67
2022-11-16T12:01:51.045Z,11.68
2022-11-16T12:05:17.753Z,11.84
2022-11-16T12:09:03.744Z,11.76
2022-11-16T12:12:37.989Z,11.66
2022-11-16T12:16:23.689Z,11.65
2022-11-16T12:19:38.037Z,11.62
2022-11-16T12:23:16.857Z,11.61
2022-11-16T12:26:57.632Z,11.66
2022-11-16T12:30:17.679Z,11.81
2022-11-16T12:33:54.903Z,11.75
2022-11-16T12:37:16.764Z,11.82
2022-11-16T12:40:28.196Z,11.93
2022-11-16T12:44:03.169Z,11.93
2022-11-16T12:47:47.884Z,11.89
2022-11-16T12:51:35.216Z,12.00
2022-11-16T12:58:38.996Z,11.79
2022-11-16T13:02:00.822Z,11.81
2022-11-16T13:05:49.207Z,11.95
2022-11-16T13:09:10.978Z,11.90
2022-11-16T13:12:36.445Z,11.89
2022-11-16T13:15:43.578Z,11.92
2022-11-16T13:19:07.365Z,11.98
2022-11-16T13:22:23.568Z,11.95
2022-11-16T13:25:57.607Z,11.80
2022-11-16T13:29:46.245Z,11.82
2022-11-16T13:33:23.835Z,11.83
2022-11-16T13:36:43.828Z,11.74
2022-11-16T13:40:16.758Z,11.94
2022-11-16T13:43:22.968Z,11.80
2022-11-16T13:46:57.063Z,11.78
2022-11-16T13:50:06.137Z,11.77
2022-11-16T13:57:35.024Z,11.73
2022-11-16T14:01:01.577Z,11.68
2022-11-16T14:04:44.303Z,11.66
2022-11-16T14:08:37.847Z,11.52
2022-11-16T14:11:44.029Z,11.58
2022-11-16T14:15:19.469Z,11.52
2022-11-16T14:18:34.654Z,11.42
2022-11-16T14:22:10.864Z,11.32
2022-11-16T14:25:39.070Z,11.25
2022-11-16T14:29:09.188Z,11.32
2022-11-16T14:32:44.841Z,11.24
2022-11-16T14:36:10.570Z,11.40
2022-11-16T14:39:27.156Z,11.52
2022-11-16T14:43:15.474Z,11.29
2022-11-16T14:46:38.661Z,11.22
2022-11-16T14:50:02.091Z,11.24
2022-11-16T14:53:12.628Z,11.12
2022-11-16T14:56:38.045Z,11.00
2022-11-16T14:59:44.024Z,11.04
2022-11-16T15:03:14.528Z,11.07
2022-11-16T15:06:21.018Z,11.07
2022-11-16T15:09:47.877Z,10.96
2022-11-16T15:12:55.679Z,10.86
2022-11-16T15:16:30.464Z,10.81
2022-11-16T15:19:36.404Z,10.79
2022-11-16T15:23:01.739Z,10.62
2022-11-16T15:26:07.476Z,10.65
2022-11-16T15:29:39.505Z,10.75
2022-11-16T15:32:47.969Z,10.71
2022-11-16T15:36:11.916Z,10.79
2022-11-16T15:39:21.677Z,10.84
2022-11-16T15:42:46.505Z,10.62
2022-11-16T15:45:52.767Z,10.78
2022-11-16T15:49:17.446Z,10.76
2022-11-16T15:52:55.626Z,10.81
2022-11-16T15:56:20.170Z,10.80
2022-11-16T15:59:32.927Z,10.74
2022-11-16T16:02:56.528Z,10.78
2022-11-16T16:06:03.471Z,10.71
2022-11-16T16:09:30.803Z,10.56
2022-11-16T16:12:49.833Z,10.58
2022-11-16T16:16:32.791Z,10.54
2022-11-16T16:19:44.337Z,10.46
2022-11-16T16:22:50.743Z,10.50
2022-11-16T16:25:56.175Z,10.44
2022-11-16T16:29:01.768Z,10.47
2022-11-16T16:32:13.286Z,10.45
2022-11-16T16:35:23.680Z,10.42
2022-11-16T16:38:29.616Z,10.38
2022-11-16T16:41:35.123Z,10.40
2022-11-16T16:44:42.200Z,10.32
2022-11-16T16:47:48.299Z,10.29
2022-11-16T16:50:53.438Z,10.30
2022-11-16T16:53:59.167Z,10.25
2022-11-16T16:57:04.830Z,10.17
2022-11-16T17:00:11.870Z,10.19
2022-11-16T17:03:17.085Z,10.07
2022-11-16T17:06:23.718Z,10.07
2022-11-16T17:09:29.915Z,10.05
2022-11-16T17:12:36.088Z,10.07
2022-11-16T17:15:42.119Z,10.00
2022-11-16T17:18:48.318Z,10.06
2022-11-16T17:21:54.329Z,10.03
2022-11-16T17:25:00.378Z,10.02
2022-11-16T17:28:05.890Z,9.96
2022-11-16T17:31:13.047Z,9.92
2022-11-16T17:34:18.462Z,9.91
2022-11-16T17:37:24.320Z,9.88
2022-11-16T17:40:30.091Z,9.79
2022-11-16T17:43:37.039Z,9.82
2022-11-16T17:46:43.535Z,9.77
2022-11-16T17:49:49.486Z,9.76
2022-11-16T17:52:54.701Z,9.73
2022-11-16T17:56:00.127Z,9.71
2022-11-16T17:59:05.735Z,9.64
2022-11-16T18:02:12.131Z,9.71
2022-11-16T18:05:17.548Z,9.68
2022-11-16T18:08:22.848Z,9.71
2022-11-16T18:11:28.911Z,9.66
2022-11-16T18:14:34.492Z,9.76
2022-11-16T18:17:40.080Z,9.77
2022-11-16T18:20:51.239Z,9.74
2022-11-16T18:23:59.786Z,9.76
2022-11-16T18:27:05.090Z,9.75
2022-11-16T18:30:11.206Z,9.81
2022-11-16T18:33:16.963Z,9.83
2022-11-16T18:36:23.065Z,9.89
2022-11-16T18:39:28.419Z,9.89
2022-11-16T18:42:33.352Z,9.87
2022-11-16T18:45:38.935Z,9.91
2022-11-16T18:48:46.967Z,9.90
2022-11-16T18:51:52.425Z,9.91
2022-11-16T18:54:58.355Z,9.83
2022-11-16T18:58:13.012Z,9.89
2022-11-16T19:01:29.258Z,9.90
2022-11-16T19:04:34.854Z,9.86
2022-11-16T19:07:43.018Z,9.87
2022-11-16T19:10:49.545Z,9.97
2022-11-16T19:13:57.678Z,9.95
2022-11-16T19:17:05.157Z,9.96
2022-11-16T19:20:12.025Z,10.02
2022-11-16T19:23:18.063Z,10.02
2022-11-16T19:26:25.608Z,10.06
2022-11-16T19:29:30.956Z,10.04
2022-11-16T19:32:38.325Z,10.07
2022-11-16T19:35:43.856Z,10.09
2022-11-16T19:38:49.260Z,10.13
2022-11-16T19:41:54.729Z,10.18
2022-11-16T19:45:00.550Z,10.16
2022-11-16T19:48:06.256Z,10.08
2022-11-16T19:51:23.975Z,10.19
2022-11-16T19:54:29.439Z,10.21
2022-11-16T19:57:34.727Z,10.21
2022-11-16T20:00:40.382Z,10.22
2022-11-16T20:03:47.039Z,10.19
2022-11-16T20:06:52.648Z,9.98
2022-11-16T20:09:59.121Z,10.03
2022-11-16T20:13:04.602Z,9.93
2022-11-16T20:16:12.427Z,9.90
2022-11-16T20:19:19.216Z,9.94
2022-11-16T20:22:24.944Z,10.09
2022-11-16T20:25:30.566Z,10.18
2022-11-16T20:28:37.799Z,10.12
2022-11-16T20:31:45.995Z,10.13
2022-11-16T20:34:51.706Z,10.12
2022-11-16T20:37:57.045Z,10.08
2022-11-16T20:41:15.852Z,10.00
2022-11-16T20:44:22.725Z,9.89
2022-11-16T20:47:28.503Z,9.88
2022-11-16T20:50:34.042Z,9.87
2022-11-16T20:53:40.037Z,9.80
2022-11-16T20:56:45.535Z,9.77
2022-11-16T20:59:51.137Z,9.68
2022-11-16T21:02:56.734Z,9.72
2022-11-16T21:06:02.216Z,9.53
2022-11-16T21:09:07.835Z,9.54
2022-11-16T21:12:32.424Z,9.45
2022-11-16T21:15:37.902Z,9.40
2022-11-16T21:18:43.788Z,9.41
2022-11-16T21:21:49.390Z,9.39
2022-11-16T21:24:54.586Z,9.38
2022-11-16T21:28:00.164Z,9.28
2022-11-16T21:31:08.968Z,9.18
2022-11-16T21:34:14.706Z,9.26
2022-11-16T21:37:20.118Z,9.31
2022-11-16T21:40:25.433Z,9.26
2022-11-16T21:43:34.320Z,9.22
2022-11-16T21:46:40.654Z,9.31
2022-11-16T21:50:08.653Z,9.25
2022-11-16T21:53:11.419Z,9.21
2022-11-16T21:56:19.197Z,9.21
2022-11-16T21:59:24.539Z,9.13
2022-11-16T22:02:30.366Z,9.15
2022-11-16T22:05:54.639Z,9.16
2022-11-16T22:09:00.541Z,9.16
2022-11-16T22:12:06.594Z,9.05
2022-11-16T22:15:12.649Z,9.06
2022-11-16T22:18:18.282Z,8.97
2022-11-16T22:21:23.879Z,9.02
2022-11-16T22:24:29.537Z,8.97
2022-11-16T22:27:47.058Z,8.96
2022-11-16T22:31:06.249Z,8.81
2022-11-16T22:34:11.741Z,8.75
2022-11-16T22:37:18.370Z,8.79
2022-11-16T22:40:23.813Z,8.83
2022-11-16T22:43:31.510Z,8.64
2022-11-16T22:46:36.772Z,8.63
2022-11-16T22:49:41.970Z,8.60
2022-11-16T22:52:47.246Z,8.57
2022-11-16T22:55:52.584Z,8.61
2022-11-16T22:58:59.320Z,8.58
2022-11-16T23:02:06.352Z,8.58
2022-11-16T23:05:11.960Z,8.63
2022-11-16T23:08:17.545Z,8.46
2022-11-16T23:11:43.134Z,8.39
2022-11-16T23:15:06.732Z,8.39
2022-11-16T23:18:12.215Z,8.38
2022-11-16T23:21:35.908Z,8.46
2022-11-16T23:25:00.572Z,8.44
2022-11-16T23:28:10.619Z,8.39
2022-11-16T23:31:15.979Z,8.25
2022-11-16T23:34:21.770Z,8.22
2022-11-16T23:37:27.492Z,8.23
2022-11-16T23:40:38.620Z,8.13
2022-11-16T23:43:59.434Z,8.16
2022-11-16T23:47:04.927Z,8.19
2022-11-16T23:50:10.340Z,8.22
2022-11-16T23:53:16.086Z,8.20
2022-11-16T23:56:22.584Z,8.21
2022-11-16T23:59:27.960Z,8.16
